createdAt,value
2023-04-12T00:00:45.712Z,12.14
2023-04-12T00:03:51.083Z,12.08
2023-04-12T00:06:54.537Z,12.09
2023-04-12T00:09:56.875Z,12.09
2023-04-12T00:12:58.777Z,12.09
2023-04-12T00:16:00.984Z,12.09
2023-04-12T00:19:03.804Z,12.10
2023-04-12T00:22:06.259Z,12.05
2023-04-12T00:25:08.993Z,12.08
2023-04-12T00:28:11.155Z,12.05
2023-04-12T00:31:13.313Z,12.10
2023-04-12T00:34:16.124Z,12.01
2023-04-12T00:37:18.047Z,12.08
2023-04-12T00:40:19.926Z,12.06
2023-04-12T00:43:21.882Z,12.08
2023-04-12T00:46:24.225Z,12.05
2023-04-12T00:49:30.820Z,12.05
2023-04-12T00:52:36.640Z,12.03
2023-04-12T00:55:38.530Z,12.04
2023-04-12T00:58:40.599Z,12.00
2023-04-12T01:01:42.521Z,12.03
2023-04-12T01:04:45.903Z,12.04
2023-04-12T01:07:54.328Z,12.06
2023-04-12T01:11:20.551Z,12.03
2023-04-12T01:14:35.666Z,12.05
2023-04-12T01:17:58.298Z,12.05
2023-04-12T01:21:03.819Z,12.03
2023-04-12T01:24:25.648Z,12.01
2023-04-12T01:27:35.428Z,11.99
2023-04-12T01:30:38.984Z,12.01
2023-04-12T01:33:44.624Z,11.98
2023-04-12T01:36:48.764Z,11.95
2023-04-12T01:39:51.044Z,11.96
2023-04-12T01:43:07.498Z,11.94
2023-04-12T01:46:12.154Z,11.99
2023-04-12T01:49:16.439Z,11.96
2023-04-12T01:52:23.495Z,11.93
2023-04-12T01:55:26.886Z,11.98
2023-04-12T01:58:30.198Z,11.96
2023-04-12T02:01:33.685Z,11.98
2023-04-12T02:04:36.555Z,11.93
2023-04-12T02:07:38.726Z,11.89
2023-04-12T02:10:40.906Z,11.90
2023-04-12T02:13:42.921Z,11.90
2023-04-12T02:16:45.903Z,11.90
2023-04-12T02:19:48.265Z,11.89
2023-04-12T02:22:52.960Z,11.91
2023-04-12T02:25:56.050Z,11.90
2023-04-12T02:28:58.376Z,11.95
2023-04-12T02:32:00.494Z,11.95
2023-04-12T02:35:02.944Z,11.87
2023-04-12T02:38:08.640Z,11.92
2023-04-12T02:41:20.707Z,11.90
2023-04-12T02:44:23.644Z,11.85
2023-04-12T02:47:45.115Z,11.82
2023-04-12T02:50:47.178Z,11.84
2023-04-12T02:53:52.647Z,11.75
2023-04-12T02:56:58.103Z,11.79
2023-04-12T03:00:13.416Z,11.79
2023-04-12T03:03:24.909Z,11.71
2023-04-12T03:06:30.400Z,11.68
2023-04-12T03:09:33.352Z,11.65
2023-04-12T03:12:35.771Z,11.58
2023-04-12T03:16:25.252Z,11.50
2023-04-12T03:19:36.896Z,11.43
2023-04-12T03:22:39.776Z,11.41
2023-04-12T03:25:44.962Z,11.32
2023-04-12T03:29:16.640Z,11.23
2023-04-12T03:32:20.843Z,11.25
2023-04-12T03:35:23.093Z,11.26
2023-04-12T03:38:26.447Z,11.24
2023-04-12T03:41:29.782Z,11.21
2023-04-12T03:44:32.828Z,11.12
2023-04-12T03:47:38.844Z,11.11
2023-04-12T03:50:44.672Z,11.06
2023-04-12T03:53:54.505Z,11.00
2023-04-12T03:56:56.883Z,11.01
2023-04-12T04:00:18.206Z,10.97
2023-04-12T04:03:20.298Z,11.01
2023-04-12T04:06:31.495Z,10.94
2023-04-12T04:09:34.400Z,10.92
2023-04-12T04:12:36.205Z,10.85
2023-04-12T04:15:39.012Z,10.89
2023-04-12T04:18:41.222Z,10.93
2023-04-12T04:21:45.882Z,10.89
2023-04-12T04:24:48.455Z,10.85
2023-04-12T04:27:51.156Z,10.75
2023-04-12T04:30:55.884Z,10.74
2023-04-12T04:33:59.012Z,10.66
2023-04-12T04:37:05.476Z,10.66
2023-04-12T04:40:08.718Z,10.64
2023-04-12T04:43:14.027Z,10.60
2023-04-12T04:46:21.348Z,10.55
2023-04-12T04:49:23.533Z,10.56
2023-04-12T04:52:25.757Z,10.55
2023-04-12T04:55:32.975Z,10.47
2023-04-12T04:58:35.091Z,10.44
2023-04-12T05:01:37.589Z,10.38
2023-04-12T05:04:39.922Z,10.36
2023-04-12T05:07:44.240Z,10.31
2023-04-12T05:10:52.270Z,10.18
2023-04-12T05:13:57.490Z,10.23
2023-04-12T05:16:59.618Z,10.23
2023-04-12T05:20:02.088Z,10.19
2023-04-12T05:23:04.326Z,10.20
2023-04-12T05:26:06.688Z,10.21
2023-04-12T05:29:09.029Z,10.31
2023-04-12T05:32:11.393Z,10.30
2023-04-12T05:35:13.500Z,10.34
2023-04-12T05:38:17.645Z,10.33
2023-04-12T05:41:22.751Z,10.33
2023-04-12T05:44:25.058Z,10.40
2023-04-12T05:47:27.163Z,10.36
2023-04-12T05:50:31.344Z,10.35
2023-04-12T05:53:33.306Z,10.40
2023-04-12T05:56:39.177Z,10.41
2023-04-12T05:59:41.537Z,10.46
2023-04-12T06:02:47.777Z,10.48
2023-04-12T06:05:51.540Z,10.46
2023-04-12T06:08:53.899Z,10.46
2023-04-12T06:11:57.315Z,10.51
2023-04-12T06:14:59.222Z,10.48
2023-04-12T06:18:01.301Z,10.43
2023-04-12T06:21:03.264Z,10.50
2023-04-12T06:24:05.628Z,10.50
2023-04-12T06:27:07.842Z,10.45
2023-04-12T06:30:09.946Z,10.53
2023-04-12T06:36:19.116Z,10.56
2023-04-12T06:39:21.004Z,10.65
2023-04-12T06:42:22.936Z,10.64
2023-04-12T06:45:24.880Z,10.66
2023-04-12T06:48:26.796Z,10.64
2023-04-12T06:51:28.690Z,10.66
2023-04-12T06:54:30.627Z,10.67
2023-04-12T06:57:32.555Z,10.64
2023-04-12T07:00:34.765Z,10.69
2023-04-12T07:03:37.382Z,10.66
2023-04-12T07:06:39.454Z,10.61
2023-04-12T07:09:41.423Z,10.72
2023-04-12T07:12:43.292Z,10.77
2023-04-12T07:15:45.276Z,10.85
2023-04-12T07:18:47.313Z,10.81
2023-04-12T07:21:49.347Z,10.82
2023-04-12T07:24:51.258Z,10.86
2023-04-12T07:27:53.137Z,10.78
2023-04-12T07:30:54.989Z,10.93
2023-04-12T07:33:57.055Z,10.95
2023-04-12T07:37:01.039Z,10.97
2023-04-12T07:40:03.212Z,11.00
2023-04-12T07:43:05.133Z,11.05
2023-04-12T07:46:08.650Z,11.02
2023-04-12T07:49:11.002Z,11.12
2023-04-12T07:52:12.973Z,11.20
2023-04-12T07:55:14.851Z,11.15
2023-04-12T07:58:17.845Z,11.25
2023-04-12T08:01:19.738Z,11.29
2023-04-12T08:04:21.943Z,11.39
2023-04-12T08:07:24.174Z,11.51
2023-04-12T08:10:26.397Z,11.62
2023-04-12T08:13:28.358Z,11.68
2023-04-12T08:16:30.304Z,11.62
2023-04-12T08:19:32.235Z,11.69
2023-04-12T08:22:34.199Z,11.78
2023-04-12T08:25:36.367Z,11.78
2023-04-12T08:28:39.794Z,11.89
2023-04-12T08:31:42.063Z,11.96
2023-04-12T08:34:45.615Z,12.11
2023-04-12T08:37:48.036Z,12.18
2023-04-12T08:40:50.667Z,12.23
2023-04-12T08:43:52.846Z,12.18
2023-04-12T08:46:54.856Z,12.16
2023-04-12T08:49:57.401Z,12.11
2023-04-12T08:52:59.991Z,12.00
2023-04-12T08:56:02.153Z,11.96
2023-04-12T08:59:04.624Z,11.93
2023-04-12T09:02:06.799Z,11.88
2023-04-12T09:05:09.913Z,11.85
2023-04-12T09:08:12.461Z,11.83
2023-04-12T09:11:25.901Z,11.77
2023-04-12T09:14:28.118Z,11.75
2023-04-12T09:17:30.062Z,11.72
2023-04-12T09:20:32.418Z,11.67
2023-04-12T09:23:36.410Z,11.74
2023-04-12T09:26:38.515Z,11.72
2023-04-12T09:29:45.670Z,11.71
2023-04-12T09:32:51.294Z,11.72
2023-04-12T09:36:00.495Z,11.72
2023-04-12T09:39:02.590Z,11.74
2023-04-12T09:42:18.161Z,11.73
2023-04-12T09:45:37.805Z,11.62
2023-04-12T09:48:50.289Z,11.62
2023-04-12T09:51:52.855Z,11.60
2023-04-12T09:54:57.617Z,11.62
2023-04-12T09:58:03.213Z,11.50
2023-04-12T10:01:09.562Z,11.43
2023-04-12T10:04:12.005Z,11.44
2023-04-12T10:07:15.219Z,11.38
2023-04-12T10:10:18.656Z,11.34
2023-04-12T10:13:21.509Z,11.34
2023-04-12T10:16:24.647Z,11.23
2023-04-12T10:19:29.184Z,11.21
2023-04-12T10:22:31.066Z,11.22
2023-04-12T10:25:33.073Z,11.08
2023-04-12T10:28:35.124Z,11.11
2023-04-12T10:31:37.300Z,11.11
2023-04-12T10:34:42.860Z,11.10
2023-04-12T10:38:04.466Z,11.09
2023-04-12T10:41:21.846Z,10.96
2023-04-12T10:44:28.721Z,11.02
2023-04-12T10:47:49.277Z,10.99
2023-04-12T10:51:29.334Z,10.94
2023-04-12T10:54:39.889Z,10.89
2023-04-12T10:57:45.583Z,10.89
2023-04-12T11:00:57.150Z,10.86
2023-04-12T11:04:21.338Z,10.86
2023-04-12T11:07:44.975Z,10.92
2023-04-12T11:11:18.645Z,10.91
2023-04-12T11:14:28.086Z,10.86
2023-04-12T11:17:31.440Z,10.83
2023-04-12T11:20:34.427Z,10.81
2023-04-12T11:23:39.738Z,10.81
2023-04-12T11:26:42.946Z,10.75
2023-04-12T11:29:49.318Z,10.75
2023-04-12T11:32:51.702Z,10.68
2023-04-12T11:35:53.697Z,10.66
2023-04-12T11:38:57.196Z,10.70
2023-04-12T11:41:59.518Z,10.74
2023-04-12T11:45:06.615Z,10.76
2023-04-12T11:48:13.844Z,10.71
2023-04-12T11:51:25.403Z,10.65
2023-04-12T11:54:30.008Z,10.73
2023-04-12T11:57:32.326Z,10.65
2023-04-12T12:04:12.243Z,10.68
2023-04-12T12:07:17.651Z,10.70
2023-04-12T12:10:37.821Z,10.63
2023-04-12T12:13:53.455Z,10.61
2023-04-12T12:16:58.608Z,10.55
2023-04-12T12:20:01.585Z,10.51
2023-04-12T12:23:03.523Z,10.67
2023-04-12T12:26:18.392Z,10.62
2023-04-12T12:29:22.587Z,10.72
2023-04-12T12:32:24.698Z,10.78
2023-04-12T12:35:27.513Z,10.77
2023-04-12T12:38:55.826Z,10.82
2023-04-12T12:41:58.354Z,10.86
2023-04-12T12:45:00.542Z,10.88
2023-04-12T12:48:05.090Z,10.84
2023-04-12T12:51:07.208Z,10.83
2023-04-12T12:54:09.273Z,10.84
2023-04-12T12:57:11.213Z,10.78
2023-04-12T13:00:15.266Z,10.84
2023-04-12T13:03:17.607Z,10.80
2023-04-12T13:06:20.019Z,10.80
2023-04-12T13:09:22.036Z,10.84
2023-04-12T13:12:25.114Z,10.90
2023-04-12T13:15:27.110Z,10.86
2023-04-12T13:18:29.061Z,10.94
2023-04-12T13:21:31.789Z,10.95
2023-04-12T13:24:34.840Z,10.98
2023-04-12T13:27:37.725Z,10.98
2023-04-12T13:30:39.557Z,10.92
2023-04-12T13:33:41.510Z,10.97
2023-04-12T13:36:43.399Z,10.94
2023-04-12T13:39:45.659Z,10.99
2023-04-12T13:42:47.674Z,11.01
2023-04-12T13:45:50.890Z,11.01
2023-04-12T13:48:52.885Z,11.05
2023-04-12T13:51:56.626Z,11.05
2023-04-12T13:54:59.750Z,11.08
2023-04-12T13:58:02.829Z,11.10
2023-04-12T14:01:05.798Z,11.07
2023-04-12T14:04:07.977Z,11.09
2023-04-12T14:07:09.918Z,11.14
2023-04-12T14:10:11.992Z,11.17
2023-04-12T14:13:13.971Z,11.16
2023-04-12T14:16:15.929Z,11.22
2023-04-12T14:19:18.019Z,11.22
2023-04-12T14:22:19.988Z,11.25
2023-04-12T14:25:22.121Z,11.23
2023-04-12T14:28:28.987Z,11.29
2023-04-12T14:31:31.083Z,11.33
2023-04-12T14:34:34.104Z,11.35
2023-04-12T14:37:36.160Z,11.39
2023-04-12T14:40:38.302Z,11.45
2023-04-12T14:43:40.245Z,11.43
2023-04-12T14:46:42.144Z,11.43
2023-04-12T14:49:44.212Z,11.48
2023-04-12T14:52:46.222Z,11.45
2023-04-12T14:55:48.422Z,11.39
2023-04-12T14:58:55.826Z,11.39
2023-04-12T15:01:59.553Z,11.39
2023-04-12T15:05:07.392Z,11.43
2023-04-12T15:08:09.466Z,11.42
2023-04-12T15:11:12.625Z,11.50
2023-04-12T15:14:20.964Z,11.43
2023-04-12T15:17:24.430Z,11.43
2023-04-12T15:20:26.434Z,11.49
2023-04-12T15:23:28.793Z,11.48
2023-04-12T15:26:30.837Z,11.48
2023-04-12T15:29:32.776Z,11.47
2023-04-12T15:32:38.622Z,11.47
2023-04-12T15:35:42.646Z,11.48
2023-04-12T15:38:44.896Z,11.47
2023-04-12T15:41:46.904Z,11.43
2023-04-12T15:44:48.857Z,11.39
2023-04-12T15:47:50.885Z,11.42
2023-04-12T15:50:54.312Z,11.41
2023-04-12T15:53:59.228Z,11.39
2023-04-12T15:57:09.586Z,11.39
2023-04-12T16:00:24.973Z,11.38
2023-04-12T16:03:27.218Z,11.35
2023-04-12T16:06:34.671Z,11.34
2023-04-12T16:09:38.761Z,11.35
2023-04-12T16:12:40.671Z,11.28
2023-04-12T16:15:42.732Z,11.32
2023-04-12T16:18:45.754Z,11.35
2023-04-12T16:21:48.535Z,11.29
2023-04-12T16:24:50.471Z,11.30
2023-04-12T16:27:52.444Z,11.31
2023-04-12T16:30:55.394Z,11.25
2023-04-12T16:33:58.343Z,11.30
2023-04-12T16:37:00.301Z,11.36
2023-04-12T16:40:02.304Z,11.36
2023-04-12T16:43:04.215Z,11.36
2023-04-12T16:46:07.194Z,11.31
2023-04-12T16:49:09.148Z,11.33
2023-04-12T16:52:11.176Z,11.35
2023-04-12T16:55:13.519Z,11.31
2023-04-12T16:58:16.063Z,11.28
2023-04-12T17:01:18.283Z,11.32
2023-04-12T17:04:20.393Z,11.32
2023-04-12T17:07:23.071Z,11.34
2023-04-12T17:10:25.604Z,11.40
2023-04-12T17:13:28.752Z,11.35
2023-04-12T17:16:30.703Z,11.35
2023-04-12T17:19:32.789Z,11.42
2023-04-12T17:22:34.691Z,11.42
2023-04-12T17:25:37.806Z,11.38
2023-04-12T17:28:40.170Z,11.39
2023-04-12T17:31:42.842Z,11.39
2023-04-12T17:34:44.974Z,11.37
2023-04-12T17:37:49.715Z,11.34
2023-04-12T17:40:52.672Z,11.38
2023-04-12T17:43:54.643Z,11.31
2023-04-12T17:46:57.625Z,11.37
2023-04-12T17:49:59.710Z,11.37
2023-04-12T17:53:01.947Z,11.37
2023-04-12T17:56:04.655Z,11.37
2023-04-12T17:59:06.660Z,11.31
2023-04-12T18:02:09.298Z,11.32
2023-04-12T18:05:12.434Z,11.35
2023-04-12T18:08:16.997Z,11.33
2023-04-12T18:11:21.058Z,11.35
2023-04-12T18:14:23.838Z,11.33
2023-04-12T18:17:30.563Z,11.27
2023-04-12T18:20:33.323Z,11.30
2023-04-12T18:23:35.486Z,11.33
2023-04-12T18:26:37.430Z,11.31
2023-04-12T18:29:39.402Z,11.31
2023-04-12T18:32:41.893Z,11.32
2023-04-12T18:35:44.829Z,11.29
2023-04-12T18:38:47.870Z,11.30
2023-04-12T18:41:49.901Z,11.28
2023-04-12T18:44:52.362Z,11.31
2023-04-12T18:47:54.498Z,11.33
2023-04-12T18:50:58.282Z,11.32
2023-04-12T18:54:00.975Z,11.31
2023-04-12T18:57:03.661Z,11.31
2023-04-12T19:00:13.681Z,11.31
2023-04-12T19:03:16.021Z,11.27
2023-04-12T19:06:18.236Z,11.27
2023-04-12T19:09:20.348Z,11.20
2023-04-12T19:12:22.628Z,11.24
2023-04-12T19:15:24.870Z,11.25
2023-04-12T19:18:30.041Z,11.20
2023-04-12T19:21:33.239Z,11.20
2023-04-12T19:24:35.209Z,11.20
2023-04-12T19:27:38.814Z,11.18
2023-04-12T19:30:41.335Z,11.17
2023-04-12T19:33:43.257Z,11.15
2023-04-12T19:36:45.303Z,11.15
2023-04-12T19:39:47.240Z,11.14
2023-04-12T19:42:50.284Z,11.15
2023-04-12T19:45:53.010Z,11.14
2023-04-12T19:48:54.862Z,11.14
2023-04-12T19:51:57.511Z,11.12
2023-04-12T19:55:01.624Z,11.13
2023-04-12T19:58:04.003Z,11.11
2023-04-12T20:01:07.123Z,11.08
2023-04-12T20:04:09.675Z,11.12
2023-04-12T20:07:11.765Z,11.12
2023-04-12T20:10:15.438Z,11.10
2023-04-12T20:13:17.971Z,11.13
2023-04-12T20:16:19.882Z,11.12
2023-04-12T20:19:22.089Z,11.11
2023-04-12T20:22:24.254Z,11.07
2023-04-12T20:25:26.182Z,11.14
2023-04-12T20:28:28.916Z,11.10
2023-04-12T20:31:31.191Z,11.11
2023-04-12T20:34:33.130Z,11.15
2023-04-12T20:37:35.048Z,11.12
2023-04-12T20:40:37.015Z,11.12
2023-04-12T20:43:46.606Z,11.17
2023-04-12T20:46:49.222Z,11.10
2023-04-12T20:49:52.357Z,11.10
2023-04-12T20:52:56.342Z,11.13
2023-04-12T20:55:58.366Z,11.10
2023-04-12T20:59:00.778Z,11.15
2023-04-12T21:02:02.707Z,11.15
2023-04-12T21:05:06.577Z,11.15
2023-04-12T21:08:08.583Z,11.15
2023-04-12T21:11:10.659Z,11.18
2023-04-12T21:14:12.502Z,11.14
2023-04-12T21:17:14.627Z,11.18
2023-04-12T21:20:16.899Z,11.17
2023-04-12T21:23:19.487Z,11.15
2023-04-12T21:26:21.514Z,11.15
2023-04-12T21:29:23.608Z,11.15
2023-04-12T21:32:25.477Z,11.11
2023-04-12T21:35:27.404Z,11.11
2023-04-12T21:38:29.263Z,11.14
2023-04-12T21:41:31.399Z,11.15
2023-04-12T21:44:34.456Z,11.13
2023-04-12T21:47:36.876Z,11.10
2023-04-12T21:50:38.768Z,11.10
2023-04-12T21:53:40.933Z,11.11
2023-04-12T21:56:42.860Z,11.02
2023-04-12T21:59:44.833Z,11.08
2023-04-12T22:02:46.851Z,11.07
2023-04-12T22:06:00.779Z,11.06
2023-04-12T22:09:06.007Z,11.05
2023-04-12T22:12:08.272Z,11.07
2023-04-12T22:15:11.968Z,11.04
2023-04-12T22:18:14.226Z,11.07
2023-04-12T22:21:16.719Z,11.05
2023-04-12T22:24:18.550Z,11.05
2023-04-12T22:27:20.526Z,11.00
2023-04-12T22:30:23.101Z,11.02
2023-04-12T22:33:25.016Z,10.99
2023-04-12T22:36:29.293Z,10.97
2023-04-12T22:39:34.226Z,10.92
2023-04-12T22:42:37.018Z,10.91
2023-04-12T22:45:39.624Z,10.87
2023-04-12T22:48:48.061Z,10.85
2023-04-12T22:51:49.974Z,10.85
2023-04-12T22:54:51.929Z,10.86
2023-04-12T22:57:54.576Z,10.84
2023-04-12T23:00:56.962Z,10.81
2023-04-12T23:04:00.745Z,10.84
2023-04-12T23:07:02.562Z,10.79
2023-04-12T23:10:04.794Z,10.83
2023-04-12T23:13:07.801Z,10.76
2023-04-12T23:16:09.739Z,10.77
2023-04-12T23:19:13.090Z,10.70
2023-04-12T23:22:44.529Z,10.71
2023-04-12T23:25:54.673Z,10.67
2023-04-12T23:28:57.344Z,10.65
2023-04-12T23:31:59.696Z,10.67
2023-04-12T23:35:02.311Z,10.60
2023-04-12T23:38:04.833Z,10.61
2023-04-12T23:41:10.145Z,10.54
2023-04-12T23:44:12.123Z,10.49
2023-04-12T23:47:14.100Z,10.42
2023-04-12T23:50:15.999Z,10.40
2023-04-12T23:53:19.386Z,10.35
2023-04-12T23:56:21.315Z,10.32
2023-04-12T23:59:23.174Z,10.22
